createdAt,value
2023-04-20T00:03:21.930Z,21.3
2023-04-20T00:13:21.303Z,21.1
2023-04-20T00:23:20.846Z,21.3
2023-04-20T00:33:20.814Z,21.3
2023-04-20T00:43:20.410Z,21.2
2023-04-20T00:53:20.455Z,21.2
2023-04-20T01:03:20.910Z,20.9
2023-04-20T01:13:21.226Z,22.9
2023-04-20T01:23:20.819Z,21.3
2023-04-20T01:33:20.821Z,21.4
2023-04-20T01:43:21.598Z,21.4
2023-04-20T01:53:21.188Z,21.2
2023-04-20T02:03:22.544Z,22.6
2023-04-20T02:13:22.831Z,20.9
2023-04-20T02:23:23.308Z,22.7
2023-04-20T02:33:24.519Z,22.9
2023-04-20T02:43:24.281Z,22.6
2023-04-20T02:53:24.186Z,21.2
2023-04-20T03:03:08.874Z,21.6
2023-04-20T03:13:09.634Z,21.3
2023-04-20T03:23:08.639Z,21.6
2023-04-20T03:33:10.597Z,21.5
2023-04-20T03:43:10.414Z,21.4
2023-04-20T03:53:10.789Z,21.6
2023-04-20T04:03:13.349Z,21.4
2023-04-20T04:13:14.732Z,21.4
2023-04-20T04:23:16.428Z,21.4
2023-04-20T04:33:17.849Z,21.6
2023-04-20T04:43:19.952Z,21.5
2023-04-20T04:53:21.513Z,21.3
2023-04-20T05:03:22.863Z,21.4
2023-04-20T05:13:22.785Z,21.4
2023-04-20T05:23:23.009Z,21.3
2023-04-20T05:33:23.508Z,21.3
2023-04-20T05:43:25.022Z,22.9
2023-04-20T05:53:25.178Z,21.4
2023-04-20T06:03:25.957Z,21.4
2023-04-20T06:13:25.966Z,21.8
2023-04-20T06:23:26.413Z,21.6
2023-04-20T06:33:27.108Z,22.5
2023-04-20T06:43:27.992Z,23.1
2023-04-20T06:53:28.182Z,21.8
2023-04-20T07:03:29.016Z,21.7
2023-04-20T07:13:33.224Z,21.9
2023-04-20T07:23:30.199Z,21.9
2023-04-20T07:33:35.132Z,25.2
2023-04-20T07:43:47.153Z,26.5
2023-04-20T07:54:02.751Z,26.2
2023-04-20T08:04:17.555Z,26
2023-04-20T08:14:34.735Z,27.6
2023-04-20T08:24:48.703Z,26.3
2023-04-20T08:34:56.662Z,26.7
2023-04-20T08:45:08.449Z,25.5
2023-04-20T08:55:13.734Z,26.1
2023-04-20T09:03:08.914Z,23.6
2023-04-20T09:13:09.277Z,23.4
2023-04-20T09:23:12.384Z,24.2
2023-04-20T09:33:22.830Z,27.6
2023-04-20T09:43:38.905Z,27.9
2023-04-20T09:53:56.779Z,27.3
2023-04-20T10:04:10.534Z,27.9
2023-04-20T10:14:28.139Z,28
2023-04-20T10:24:46.069Z,27.3
2023-04-20T10:35:01.457Z,27.8
2023-04-20T10:45:19.460Z,27.6
2023-04-20T10:55:34.360Z,27.3
2023-04-20T11:05:46.639Z,29.2
2023-04-20T11:15:57.514Z,27.8
2023-04-20T11:26:08.086Z,27.5
2023-04-20T11:36:20.023Z,27.8
2023-04-20T11:46:34.696Z,27.5
2023-04-20T11:56:43.259Z,27.1
2023-04-20T12:06:51.193Z,25.8
2023-04-20T12:16:56.720Z,24.3
2023-04-20T12:26:53.550Z,23
2023-04-20T12:36:52.875Z,23.5
2023-04-20T12:46:53.960Z,24.4
2023-04-20T12:56:57.245Z,26.3
2023-04-20T13:07:07.379Z,23.6
2023-04-20T13:17:13.534Z,25.9
2023-04-20T13:27:19.047Z,27.1
2023-04-20T13:37:22.947Z,24.8
2023-04-20T13:47:26.501Z,26
2023-04-20T13:57:28.515Z,25.6
2023-04-20T14:07:32.928Z,23.6
2023-04-20T14:17:35.543Z,24
2023-04-20T14:27:37.377Z,24.8
2023-04-20T14:37:39.636Z,23.1
2023-04-20T14:47:41.796Z,24.7
2023-04-20T14:57:41.770Z,23.3
2023-04-20T15:03:09.236Z,23
2023-04-20T15:13:10.714Z,24.6
2023-04-20T15:23:12.935Z,24.6
2023-04-20T15:33:13.218Z,22.8
2023-04-20T15:43:12.851Z,22.7
2023-04-20T15:53:14.086Z,24.3
2023-04-20T16:03:15.664Z,22.9
2023-04-20T16:13:16.726Z,24.2
2023-04-20T16:23:20.024Z,22.6
2023-04-20T16:33:22.187Z,22.6
2023-04-20T16:43:23.219Z,22.6
2023-04-20T16:53:26.551Z,23.9
2023-04-20T17:03:27.500Z,22.5
2023-04-20T17:13:27.862Z,22.3
2023-04-20T17:23:28.748Z,24.2
2023-04-20T17:33:29.600Z,24.2
2023-04-20T17:43:29.731Z,22.1
2023-04-20T17:53:30.187Z,22.1
2023-04-20T18:03:31.261Z,23.7
2023-04-20T18:13:31.065Z,22.1
2023-04-20T18:23:31.126Z,22.1
2023-04-20T18:33:31.905Z,22
2023-04-20T18:43:33.470Z,23.6
2023-04-20T18:53:33.464Z,21.9
2023-04-20T19:03:34.129Z,21.9
2023-04-20T19:13:34.301Z,22
2023-04-20T19:23:34.429Z,21.9
2023-04-20T19:33:34.049Z,21.8
2023-04-20T19:43:33.828Z,21.9
2023-04-20T19:53:34.473Z,23.7
2023-04-20T20:03:35.417Z,23.4
2023-04-20T20:13:35.082Z,21.9
2023-04-20T20:23:35.188Z,21.8
2023-04-20T20:33:34.850Z,21.6
2023-04-20T20:43:34.920Z,21.9
2023-04-20T20:53:34.865Z,21.8
2023-04-20T21:03:07.586Z,21.7
2023-04-20T21:13:07.489Z,21.6
2023-04-20T21:23:08.142Z,21.9
2023-04-20T21:33:08.066Z,21.7
2023-04-20T21:43:11.376Z,21.6
2023-04-20T21:53:08.877Z,21.8
2023-04-20T22:03:08.954Z,21.6
2023-04-20T22:13:10.242Z,21.5
2023-04-20T22:23:11.626Z,21.6
2023-04-20T22:33:12.986Z,23.4
2023-04-20T22:43:15.508Z,21.6
2023-04-20T22:53:17.351Z,21.3
2023-04-20T23:03:18.247Z,21.4
2023-04-20T23:13:18.851Z,21.6
2023-04-20T23:23:18.560Z,21.4
2023-04-20T23:33:18.313Z,21.5
2023-04-20T23:43:18.281Z,21.6
2023-04-20T23:53:18.256Z,21.4
